^^
WoodinvilleWX Historical Data
 
Daily Summary for December 10, 2019 Units:  English    Metric   Both
Daily Weekly Monthly Yearly Custom
  Current: High: Low: Average:
Temperature: 36.8 °F 37.8 °F 35.9 °F 37.1 °F
Dew Point: 36.55 °F 37.55 °F 35.65 °F 36.8 °F
Humidity: 99% 99% 99% 99%
Wind Speed: 0mph 4mph 0mph 0.3mph
Wind Gust: 0mph 5mph - -
WindCalm - - SSE
Pressure: 30.17 in 30.19 in 30.16 in -
Precipitation: 0 in      
Historical Graphs
 
 
Tabular Data for December 10, 2019
Time Temperature Dew Point Pressure Wind Wind Speed Wind Gust Humidity Rainfall Rate (Hourly)
00:01 37.7 °F 37.45 °F 30.18 in Calm     99% 0 in
00:05 37.7 °F 37.45 °F 30.17 in Calm     99% 0 in
00:10 37.8 °F 37.55 °F 30.17 in Calm     99% 0 in
00:15 37.7 °F 37.45 °F 30.17 in Calm     99% 0 in
00:20 37.7 °F 37.45 °F 30.17 in Calm   1 mph 99% 0 in
00:25 37.7 °F 37.45 °F 30.17 in Calm     99% 0 in
00:30 37.7 °F 37.45 °F 30.17 in Calm     99% 0 in
00:35 37.7 °F 37.45 °F 30.17 in Calm     99% 0 in
00:40 37.7 °F 37.45 °F 30.17 in Calm     99% 0 in
00:45 37.6 °F 37.35 °F 30.17 in Calm     99% 0 in
00:50 37.5 °F 37.25 °F 30.17 in Calm     99% 0 in
00:55 37.5 °F 37.25 °F 30.17 in Calm     99% 0 in
01:00 37.4 °F 37.15 °F 30.17 in Calm     99% 0 in
01:05 37.4 °F 37.15 °F 30.17 in Calm   1 mph 99% 0 in
01:10 37.4 °F 37.15 °F 30.18 in Calm     99% 0 in
01:15 37.4 °F 37.15 °F 30.18 in SSE 1 mph 2 mph 99% 0 in
01:20 37.5 °F 37.25 °F 30.18 in Calm   1 mph 99% 0 in
01:25 37.4 °F 37.15 °F 30.18 in Calm   1 mph 99% 0 in
01:30 37.4 °F 37.15 °F 30.18 in Calm     99% 0 in
01:35 37.4 °F 37.15 °F 30.17 in Calm     99% 0 in
01:40 37.4 °F 37.15 °F 30.17 in Calm   1 mph 99% 0 in
01:45 37.4 °F 37.15 °F 30.17 in SSE 1 mph 4 mph 99% 0 in
01:50 37.3 °F 37.05 °F 30.17 in Calm   1 mph 99% 0 in
01:55 37.3 °F 37.05 °F 30.18 in Calm   2 mph 99% 0 in
02:00 37.3 °F 37.05 °F 30.18 in SSE 1 mph 3 mph 99% 0 in
02:05 37.2 °F 36.95 °F 30.17 in Calm   1 mph 99% 0 in
02:10 37.2 °F 36.95 °F 30.18 in Calm   1 mph 99% 0 in
02:15 37.1 °F 36.85 °F 30.18 in Calm   1 mph 99% 0 in
02:20 37 °F 36.75 °F 30.18 in SE 1 mph 2 mph 99% 0 in
02:25 36.8 °F 36.55 °F 30.17 in Calm   1 mph 99% 0 in
02:30 36.9 °F 36.65 °F 30.18 in SE 2 mph 2 mph 99% 0 in
02:35 36.9 °F 36.65 °F 30.18 in Calm   2 mph 99% 0 in
02:40 36.9 °F 36.65 °F 30.18 in Calm     99% 0 in
02:45 37 °F 36.75 °F 30.17 in Calm   1 mph 99% 0 in
02:50 37 °F 36.75 °F 30.17 in SSE 1 mph 2 mph 99% 0 in
02:55 37 °F 36.75 °F 30.17 in Calm   1 mph 99% 0 in
03:00 37 °F 36.75 °F 30.17 in SSE 1 mph 2 mph 99% 0 in
03:05 37 °F 36.75 °F 30.17 in Calm   1 mph 99% 0 in
03:10 37 °F 36.75 °F 30.17 in Calm     99% 0 in
03:15 37 °F 36.75 °F 30.17 in Calm   1 mph 99% 0 in
03:20 37 °F 36.75 °F 30.18 in Calm   2 mph 99% 0 in
03:25 37 °F 36.75 °F 30.18 in Calm     99% 0 in
03:30 37 °F 36.75 °F 30.19 in Calm   1 mph 99% 0 in
03:35 37 °F 36.75 °F 30.18 in Calm   1 mph 99% 0 in
03:40 37 °F 36.75 °F 30.17 in Calm     99% 0 in
03:45 37.1 °F 36.85 °F 30.17 in Calm   1 mph 99% 0 in
03:50 37.1 °F 36.85 °F 30.17 in Calm     99% 0 in
03:55 37.1 °F 36.85 °F 30.17 in Calm   1 mph 99% 0 in
04:00 37.1 °F 36.85 °F 30.17 in Calm   1 mph 99% 0 in
04:05 37.1 °F 36.85 °F 30.17 in Calm   1 mph 99% 0 in
04:10 37.1 °F 36.85 °F 30.17 in Calm   1 mph 99% 0 in
04:15 37.1 °F 36.85 °F 30.17 in Calm     99% 0 in
04:20 37.1 °F 36.85 °F 30.17 in Calm     99% 0 in
04:25 37.1 °F 36.85 °F 30.17 in Calm   1 mph 99% 0 in
04:30 37.2 °F 36.95 °F 30.17 in Calm   1 mph 99% 0 in
04:35 37.1 °F 36.85 °F 30.17 in Calm     99% 0 in
04:40 37.3 °F 37.05 °F 30.17 in Calm     99% 0 in
04:45 37.3 °F 37.05 °F 30.17 in Calm     99% 0 in
04:50 37.3 °F 37.05 °F 30.17 in Calm   2 mph 99% 0 in
04:55 37.2 °F 36.95 °F 30.16 in Calm   1 mph 99% 0 in
05:00 37.2 °F 36.95 °F 30.16 in Calm   1 mph 99% 0 in
05:05 37.2 °F 36.95 °F 30.17 in Calm     99% 0 in
05:10 37.2 °F 36.95 °F 30.17 in Calm     99% 0 in
05:15 37.2 °F 36.95 °F 30.16 in Calm     99% 0 in
05:20 37.1 °F 36.85 °F 30.16 in Calm     99% 0 in
05:25 37.1 °F 36.85 °F 30.17 in Calm     99% 0 in
05:30 37.3 °F 37.05 °F 30.18 in Calm     99% 0 in
05:35 37.2 °F 36.95 °F 30.17 in Calm     99% 0 in
05:40 37.3 °F 37.05 °F 30.18 in Calm     99% 0 in
05:45 37.5 °F 37.25 °F 30.18 in Calm     99% 0 in
05:50 37.6 °F 37.35 °F 30.18 in Calm   1 mph 99% 0 in
05:55 37.6 °F 37.35 °F 30.18 in South 1 mph 1 mph 99% 0 in
06:00 37.6 °F 37.35 °F 30.18 in Calm   1 mph 99% 0 in
06:05 37.6 °F 37.35 °F 30.18 in Calm   1 mph 99% 0 in
06:10 37.6 °F 37.35 °F 30.18 in Calm   1 mph 99% 0 in
06:15 37.7 °F 37.45 °F 30.18 in Calm   2 mph 99% 0 in
06:20 37.6 °F 37.35 °F 30.18 in Calm   1 mph 99% 0 in
06:25 37.5 °F 37.25 °F 30.19 in Calm   1 mph 99% 0 in
06:30 37.5 °F 37.25 °F 30.19 in Calm   1 mph 99% 0 in
06:35 37.5 °F 37.25 °F 30.19 in SSE 1 mph 1 mph 99% 0 in
06:40 37.5 °F 37.25 °F 30.19 in Calm   1 mph 99% 0 in
06:45 37.5 °F 37.25 °F 30.19 in Calm   1 mph 99% 0 in
06:50 37.5 °F 37.25 °F 30.18 in Calm     99% 0 in
06:55 37.6 °F 37.35 °F 30.19 in Calm   3 mph 99% 0 in
07:00 37.6 °F 37.35 °F 30.19 in SE 1 mph 4 mph 99% 0 in
07:05 37.5 °F 37.25 °F 30.19 in SE 1 mph 5 mph 99% 0 in
07:10 37.5 °F 37.25 °F 30.19 in ESE 1 mph 3 mph 99% 0 in
07:15 37.6 °F 37.35 °F 30.19 in SE 1 mph 2 mph 99% 0 in
07:20 37.6 °F 37.35 °F 30.19 in ESE 2 mph 2 mph 99% 0 in
07:25 37.6 °F 37.35 °F 30.18 in SSE 2 mph 5 mph 99% 0 in
07:30 37.3 °F 37.05 °F 30.18 in SE 1 mph 2 mph 99% 0 in
07:35 37.1 °F 36.85 °F 30.18 in SE 4 mph 5 mph 99% 0 in
07:40 36.8 °F 36.55 °F 30.18 in Calm   4 mph 99% 0 in
07:45 36.7 °F 36.45 °F 30.18 in WSW 1 mph 2 mph 99% 0 in
07:50 36.6 °F 36.35 °F 30.18 in SSW 1 mph 2 mph 99% 0 in
07:55 36.5 °F 36.25 °F 30.18 in ESE 1 mph 2 mph 99% 0 in
08:00 36.4 °F 36.15 °F 30.18 in Calm   3 mph 99% 0 in
08:05 36.4 °F 36.15 °F 30.18 in Calm   1 mph 99% 0 in
08:10 36.4 °F 36.15 °F 30.18 in Calm   2 mph 99% 0 in
08:15 36.4 °F 36.15 °F 30.18 in Calm   2 mph 99% 0 in
08:20 36.4 °F 36.15 °F 30.17 in SE 2 mph 3 mph 99% 0 in
08:25 36.3 °F 36.05 °F 30.17 in Calm   2 mph 99% 0 in
08:30 36.3 °F 36.05 °F 30.17 in Calm   1 mph 99% 0 in
08:35 36.2 °F 35.95 °F 30.17 in Calm   1 mph 99% 0 in
08:40 36.3 °F 36.05 °F 30.18 in Calm     99% 0 in
08:45 36.2 °F 35.95 °F 30.17 in SSE 1 mph 1 mph 99% 0 in
08:50 36 °F 35.75 °F 30.17 in Calm   1 mph 99% 0 in
08:55 36 °F 35.75 °F 30.17 in Calm   1 mph 99% 0 in
09:00 36 °F 35.75 °F 30.17 in SSE 2 mph 2 mph 99% 0 in
09:05 36 °F 35.75 °F 30.17 in SSE 1 mph 2 mph 99% 0 in
09:10 36 °F 35.75 °F 30.17 in Calm   1 mph 99% 0 in
09:15 36 °F 35.75 °F 30.17 in Calm   1 mph 99% 0 in
09:20 36.2 °F 35.95 °F 30.17 in Calm   1 mph 99% 0 in
09:25 36.1 °F 35.85 °F 30.17 in Calm   2 mph 99% 0 in
09:30 35.9 °F 35.65 °F 30.17 in SE 1 mph 5 mph 99% 0 in
09:35 36 °F 35.75 °F 30.17 in SE 1 mph 4 mph 99% 0 in
09:40 36.1 °F 35.85 °F 30.17 in SE 1 mph 1 mph 99% 0 in
09:45 36.5 °F 36.25 °F 30.17 in Calm   1 mph 99% 0 in
09:50 36.6 °F 36.35 °F 30.17 in Calm   4 mph 99% 0 in
09:55 36.8 °F 36.55 °F 30.17 in Calm   2 mph 99% 0 in
10:00 36.8 °F 36.55 °F 30.17 in Calm   2 mph 99% 0 in
10:05 36.8 °F 36.55 °F 30.17 in Calm     99% 0 in
Woodinville, Washington USA
Compliments of Weather Underground - 4 mb